createdAt,value
2022-10-09T00:02:55.710Z,100.00
2022-10-09T00:05:45.492Z,100.00
2022-10-09T00:08:35.661Z,100.00
2022-10-09T00:11:26.370Z,100.00
2022-10-09T00:14:14.829Z,100.00
2022-10-09T00:17:04.279Z,100.00
2022-10-09T00:19:53.566Z,100.00
2022-10-09T00:22:44.189Z,100.00
2022-10-09T00:25:32.920Z,100.00
2022-10-09T00:28:23.772Z,100.00
2022-10-09T00:31:13.377Z,100.00
2022-10-09T00:34:02.465Z,100.00
2022-10-09T00:36:51.009Z,100.00
2022-10-09T00:39:39.976Z,100.00
2022-10-09T00:42:28.518Z,100.00
2022-10-09T00:45:21.340Z,100.00
2022-10-09T00:48:12.378Z,100.00
2022-10-09T00:51:02.575Z,100.00
2022-10-09T00:53:51.322Z,100.00
2022-10-09T00:56:40.077Z,100.00
2022-10-09T00:59:29.043Z,100.00
2022-10-09T01:02:19.244Z,100.00
2022-10-09T01:05:11.037Z,100.00
2022-10-09T01:08:09.022Z,100.00
2022-10-09T01:11:04.299Z,100.00
2022-10-09T01:13:58.245Z,100.00
2022-10-09T01:16:53.587Z,100.00
2022-10-09T01:20:04.786Z,100.00
2022-10-09T01:23:07.038Z,100.00
2022-10-09T01:26:06.879Z,100.00
2022-10-09T01:29:01.987Z,100.00
2022-10-09T01:31:51.742Z,100.00
2022-10-09T01:34:42.094Z,100.00
2022-10-09T01:37:34.043Z,100.00
2022-10-09T01:40:23.922Z,100.00
2022-10-09T01:43:13.132Z,100.00
2022-10-09T01:46:20.524Z,100.00
2022-10-09T01:49:17.695Z,100.00
2022-10-09T01:52:14.354Z,100.00
2022-10-09T01:55:18.942Z,100.00
2022-10-09T01:58:16.251Z,100.00
2022-10-09T02:01:08.336Z,100.00
2022-10-09T02:03:59.692Z,100.00
2022-10-09T02:06:49.938Z,100.00
2022-10-09T02:09:39.901Z,100.00
2022-10-09T02:12:31.973Z,100.00
2022-10-09T02:15:23.487Z,100.00
2022-10-09T02:18:15.437Z,100.00
2022-10-09T02:21:11.323Z,100.00
2022-10-09T02:24:02.332Z,100.00
2022-10-09T02:26:52.891Z,100.00
2022-10-09T02:29:43.729Z,100.00
2022-10-09T02:32:32.283Z,100.00
2022-10-09T02:35:22.057Z,100.00
2022-10-09T02:38:11.255Z,100.00
2022-10-09T02:41:01.824Z,100.00
2022-10-09T02:43:50.438Z,100.00
2022-10-09T02:46:39.193Z,100.00
2022-10-09T02:49:27.679Z,100.00
2022-10-09T02:52:16.638Z,100.00
2022-10-09T02:55:07.031Z,100.00
2022-10-09T02:57:55.780Z,100.00
2022-10-09T03:00:47.625Z,100.00
2022-10-09T03:03:36.365Z,100.00
2022-10-09T03:06:26.717Z,100.00
2022-10-09T03:09:16.130Z,100.00
2022-10-09T03:12:05.654Z,100.00
2022-10-09T03:14:54.664Z,100.00
2022-10-09T03:17:43.414Z,100.00
2022-10-09T03:20:32.373Z,100.00
2022-10-09T03:23:21.750Z,100.00
2022-10-09T03:26:13.312Z,100.00
2022-10-09T03:29:01.136Z,100.00
2022-10-09T03:31:53.178Z,100.00
2022-10-09T03:34:42.090Z,100.00
2022-10-09T03:37:31.252Z,100.00
2022-10-09T03:40:19.601Z,100.00
2022-10-09T03:43:08.145Z,100.00
2022-10-09T03:46:01.027Z,100.00
2022-10-09T03:48:49.752Z,100.00
2022-10-09T03:51:38.302Z,100.00
2022-10-09T03:54:27.058Z,100.00
2022-10-09T03:57:15.813Z,100.00
2022-10-09T04:00:07.024Z,100.00
2022-10-09T04:02:55.404Z,100.00
2022-10-09T04:05:44.329Z,100.00
2022-10-09T04:08:32.882Z,100.00
2022-10-09T04:11:22.048Z,100.00
2022-10-09T04:14:10.808Z,100.00
2022-10-09T04:16:59.553Z,100.00
2022-10-09T04:19:48.308Z,100.00
2022-10-09T04:22:37.677Z,100.00
2022-10-09T04:25:27.046Z,100.00
2022-10-09T04:28:16.455Z,100.00
2022-10-09T04:31:06.496Z,100.00
2022-10-09T04:33:56.983Z,100.00
2022-10-09T04:36:45.136Z,100.00
2022-10-09T04:39:33.890Z,100.00
2022-10-09T04:42:22.450Z,100.00
2022-10-09T04:45:13.028Z,100.00
2022-10-09T04:48:01.597Z,100.00
2022-10-09T04:50:50.737Z,100.00
2022-10-09T04:53:39.320Z,100.00
2022-10-09T04:56:28.061Z,100.00
2022-10-09T04:59:16.201Z,100.00
2022-10-09T05:02:05.651Z,100.00
2022-10-09T05:04:54.344Z,100.00
2022-10-09T05:07:43.926Z,100.00
2022-10-09T05:10:33.241Z,100.00
2022-10-09T05:13:21.608Z,100.00
2022-10-09T05:16:12.706Z,100.00
2022-10-09T05:19:01.372Z,100.00
2022-10-09T05:21:49.923Z,100.00
2022-10-09T05:24:39.086Z,100.00
2022-10-09T05:27:27.636Z,100.00
2022-10-09T05:30:16.597Z,100.00
2022-10-09T05:33:04.943Z,100.00
2022-10-09T05:35:54.909Z,100.00
2022-10-09T05:38:44.280Z,100.00
2022-10-09T05:41:33.071Z,100.00
2022-10-09T05:44:21.130Z,100.00
2022-10-09T05:47:09.952Z,100.00
2022-10-09T05:49:59.523Z,100.00
2022-10-09T05:52:49.148Z,100.00
2022-10-09T05:55:38.666Z,100.00
2022-10-09T05:58:27.420Z,100.00
2022-10-09T06:01:16.411Z,100.00
2022-10-09T06:04:09.355Z,100.00
2022-10-09T06:06:57.989Z,100.00
2022-10-09T06:09:46.534Z,100.00
2022-10-09T06:12:35.068Z,100.00
2022-10-09T06:15:23.842Z,100.00
2022-10-09T06:18:12.799Z,100.00
2022-10-09T06:21:02.786Z,100.00
2022-10-09T06:23:53.291Z,100.00
2022-10-09T06:26:42.342Z,100.00
2022-10-09T06:29:31.301Z,100.00
2022-10-09T06:32:20.469Z,100.00
2022-10-09T06:35:10.839Z,100.00
2022-10-09T06:37:59.407Z,100.00
2022-10-09T06:40:47.909Z,100.00
2022-10-09T06:43:36.510Z,100.00
2022-10-09T06:46:27.769Z,100.00
2022-10-09T06:49:16.476Z,100.00
2022-10-09T06:52:06.049Z,100.00
2022-10-09T06:54:55.011Z,100.00
2022-10-09T06:57:43.764Z,100.00
2022-10-09T07:00:32.314Z,100.00
2022-10-09T07:03:21.070Z,100.00
2022-10-09T07:06:12.249Z,100.00
2022-10-09T07:09:03.290Z,100.00
2022-10-09T07:11:51.839Z,100.00
2022-10-09T07:14:40.804Z,100.00
2022-10-09T07:17:29.969Z,100.00
2022-10-09T07:20:18.328Z,100.00
2022-10-09T07:23:07.067Z,100.00
2022-10-09T07:25:55.615Z,100.00
2022-10-09T07:28:45.672Z,100.00
2022-10-09T07:31:34.569Z,100.00
2022-10-09T07:34:23.736Z,100.00
2022-10-09T07:37:12.683Z,100.00
2022-10-09T07:40:02.055Z,100.00
2022-10-09T07:42:50.652Z,100.00
2022-10-09T07:45:39.971Z,100.00
2022-10-09T07:48:29.760Z,100.00
2022-10-09T07:51:22.413Z,100.00
2022-10-09T07:54:10.541Z,100.00
2022-10-09T07:56:59.299Z,100.00
2022-10-09T07:59:48.051Z,100.00
2022-10-09T08:02:37.049Z,100.00
2022-10-09T08:05:25.561Z,100.00
2022-10-09T08:08:15.134Z,100.00
2022-10-09T08:11:12.210Z,100.00
2022-10-09T08:14:01.460Z,100.00
2022-10-09T08:16:50.019Z,100.00
2022-10-09T08:19:38.759Z,100.00
2022-10-09T08:22:27.107Z,100.00
2022-10-09T08:25:16.677Z,100.00
2022-10-09T08:28:06.086Z,100.00
2022-10-09T08:30:55.443Z,100.00
2022-10-09T08:33:45.581Z,100.00
2022-10-09T08:36:34.360Z,100.00
2022-10-09T08:39:23.113Z,100.00
2022-10-09T08:42:30.099Z,100.00
2022-10-09T08:45:20.875Z,100.00
2022-10-09T08:48:14.743Z,100.00
2022-10-09T08:51:08.854Z,100.00
2022-10-09T08:54:04.387Z,100.00
2022-10-09T08:56:53.993Z,100.00
2022-10-09T08:59:44.112Z,100.00
2022-10-09T09:02:50.690Z,100.00
2022-10-09T09:05:51.337Z,100.00
2022-10-09T09:08:49.105Z,100.00
2022-10-09T09:11:41.900Z,100.00
2022-10-09T09:14:47.914Z,100.00
2022-10-09T09:17:43.912Z,100.00
2022-10-09T09:20:43.857Z,100.00
2022-10-09T09:23:38.467Z,100.00
2022-10-09T09:26:29.353Z,100.00
2022-10-09T09:29:23.475Z,100.00
2022-10-09T09:32:18.306Z,100.00
2022-10-09T09:35:16.316Z,100.00
2022-10-09T09:38:05.057Z,100.00
2022-10-09T09:40:54.761Z,100.00
2022-10-09T09:43:43.389Z,100.00
2022-10-09T09:46:34.511Z,100.00
2022-10-09T09:49:27.172Z,100.00
2022-10-09T09:52:17.234Z,100.00
2022-10-09T09:55:23.132Z,100.00
2022-10-09T09:58:17.685Z,100.00
2022-10-09T10:01:19.751Z,100.00
2022-10-09T10:04:21.141Z,100.00
2022-10-09T10:07:11.185Z,100.00
2022-10-09T10:10:24.952Z,100.00
2022-10-09T10:13:17.237Z,100.00
2022-10-09T10:16:08.305Z,100.00
2022-10-09T10:18:58.551Z,100.00
2022-10-09T10:21:55.144Z,100.00
2022-10-09T10:24:48.637Z,100.00
2022-10-09T10:27:41.416Z,100.00
2022-10-09T10:30:30.586Z,100.00
2022-10-09T10:33:22.451Z,100.00
2022-10-09T10:36:12.160Z,100.00
2022-10-09T10:39:09.105Z,100.00
2022-10-09T10:42:05.279Z,100.00
2022-10-09T10:45:03.624Z,100.00
2022-10-09T10:47:56.131Z,100.00
2022-10-09T10:50:54.518Z,100.00
2022-10-09T10:53:56.945Z,100.00
2022-10-09T10:56:49.293Z,100.00
2022-10-09T10:59:43.991Z,99.18
2022-10-09T11:03:03.232Z,98.16
2022-10-09T11:05:55.527Z,98.74
2022-10-09T11:08:59.926Z,97.53
2022-10-09T11:11:56.066Z,97.16
2022-10-09T11:14:52.967Z,97.43
2022-10-09T11:17:50.964Z,96.07
2022-10-09T11:21:00.808Z,93.84
2022-10-09T11:24:06.355Z,91.83
2022-10-09T11:27:03.918Z,91.04
2022-10-09T11:29:57.703Z,91.38
2022-10-09T11:32:56.223Z,91.53
2022-10-09T11:35:52.507Z,91.23
2022-10-09T11:38:46.963Z,88.48
2022-10-09T11:41:37.728Z,85.85
2022-10-09T11:44:41.914Z,87.45
2022-10-09T11:47:38.291Z,87.05
2022-10-09T11:50:49.336Z,87.56
2022-10-09T11:53:40.137Z,86.67
2022-10-09T11:56:32.250Z,85.98
2022-10-09T11:59:28.292Z,85.82
2022-10-09T12:02:26.905Z,85.53
2022-10-09T12:05:39.760Z,83.92
2022-10-09T12:08:29.349Z,81.82
2022-10-09T12:11:20.787Z,81.46
2022-10-09T12:14:11.953Z,81.86
2022-10-09T12:17:00.633Z,81.23
2022-10-09T12:19:52.598Z,82.20
2022-10-09T12:23:07.290Z,82.92
2022-10-09T12:25:57.101Z,82.15
2022-10-09T12:28:48.991Z,79.37
2022-10-09T12:31:41.677Z,79.76
2022-10-09T12:34:33.751Z,79.67
2022-10-09T12:37:32.257Z,79.96
2022-10-09T12:40:24.163Z,78.92
2022-10-09T12:43:18.590Z,77.69
2022-10-09T12:46:07.758Z,76.32
2022-10-09T12:48:57.890Z,75.62
2022-10-09T12:51:56.058Z,76.09
2022-10-09T12:54:46.471Z,74.61
2022-10-09T12:57:35.013Z,75.89
2022-10-09T13:00:24.584Z,75.69
2022-10-09T13:03:34.020Z,76.12
2022-10-09T13:06:25.084Z,76.24
2022-10-09T13:09:22.143Z,74.76
2022-10-09T13:12:20.736Z,75.55
2022-10-09T13:15:31.090Z,74.59
2022-10-09T13:18:24.087Z,74.17
2022-10-09T13:21:27.316Z,74.25
2022-10-09T13:24:18.596Z,72.65
2022-10-09T13:27:07.757Z,72.99
2022-10-09T13:29:56.927Z,72.77
2022-10-09T13:32:46.898Z,72.42
2022-10-09T13:35:35.460Z,71.58
2022-10-09T13:38:24.146Z,71.00
2022-10-09T13:41:17.068Z,71.55
2022-10-09T13:44:05.621Z,71.68
2022-10-09T13:46:54.784Z,70.92
2022-10-09T13:49:44.271Z,69.51
2022-10-09T13:52:33.975Z,69.84
2022-10-09T13:55:23.098Z,69.65
2022-10-09T13:58:12.262Z,69.31
2022-10-09T14:01:00.864Z,69.50
2022-10-09T14:03:49.771Z,68.48
2022-10-09T14:06:39.755Z,67.83
2022-10-09T14:09:28.956Z,66.84
2022-10-09T14:12:18.087Z,66.19
2022-10-09T14:15:09.644Z,66.70
2022-10-09T14:17:58.262Z,66.73
2022-10-09T14:20:47.220Z,66.34
2022-10-09T14:23:36.446Z,65.99
2022-10-09T14:26:25.959Z,66.35
2022-10-09T14:29:14.716Z,66.46
2022-10-09T14:32:03.879Z,66.74
2022-10-09T14:34:53.250Z,67.41
2022-10-09T14:37:42.555Z,67.68
2022-10-09T14:40:31.785Z,67.98
2022-10-09T14:43:22.384Z,68.01
2022-10-09T14:46:16.186Z,68.21
2022-10-09T14:49:07.528Z,68.64
2022-10-09T14:51:57.258Z,69.20
2022-10-09T14:54:46.825Z,69.19
2022-10-09T14:57:35.864Z,69.69
2022-10-09T15:00:25.154Z,70.35
2022-10-09T15:03:14.117Z,70.29
2022-10-09T15:06:05.925Z,70.84
2022-10-09T15:09:00.329Z,71.54
2022-10-09T15:11:52.259Z,71.96
2022-10-09T15:14:41.219Z,72.61
2022-10-09T15:17:31.207Z,73.07
2022-10-09T15:20:19.958Z,73.57
2022-10-09T15:23:08.924Z,74.49
2022-10-09T15:25:59.518Z,74.89
2022-10-09T15:28:48.131Z,75.88
2022-10-09T15:31:39.134Z,77.06
2022-10-09T15:34:28.243Z,77.88
2022-10-09T15:37:17.408Z,79.41
2022-10-09T15:40:09.068Z,80.42
2022-10-09T15:42:58.192Z,81.94
2022-10-09T15:45:48.385Z,83.60
2022-10-09T15:48:37.342Z,84.87
2022-10-09T15:51:28.813Z,85.65
2022-10-09T15:54:17.923Z,86.42
2022-10-09T15:57:06.937Z,87.29
2022-10-09T15:59:55.888Z,88.13
2022-10-09T16:02:45.215Z,88.48
2022-10-09T16:05:37.924Z,88.91
2022-10-09T16:08:28.666Z,89.48
2022-10-09T16:11:21.874Z,90.45
2022-10-09T16:14:13.749Z,91.84
2022-10-09T16:17:01.891Z,92.51
2022-10-09T16:19:51.057Z,93.58
2022-10-09T16:22:40.021Z,94.44
2022-10-09T16:25:30.412Z,95.33
2022-10-09T16:28:19.214Z,96.20
2022-10-09T16:31:08.127Z,96.45
2022-10-09T16:33:56.912Z,96.94
2022-10-09T16:36:45.639Z,97.86
2022-10-09T16:39:34.801Z,98.16
2022-10-09T16:42:23.556Z,98.94
2022-10-09T16:45:12.722Z,100.00
2022-10-09T16:48:02.092Z,100.00
2022-10-09T16:50:50.850Z,100.00
2022-10-09T16:53:40.013Z,100.00
2022-10-09T16:56:32.567Z,100.00
2022-10-09T16:59:21.412Z,100.00
2022-10-09T17:02:12.402Z,100.00
2022-10-09T17:05:01.177Z,100.00
2022-10-09T17:07:51.290Z,100.00
2022-10-09T17:10:44.562Z,100.00
2022-10-09T17:13:33.586Z,100.00
2022-10-09T17:16:23.899Z,100.00
2022-10-09T17:19:12.324Z,100.00
2022-10-09T17:22:03.218Z,100.00
2022-10-09T17:24:52.292Z,100.00
2022-10-09T17:27:41.666Z,100.00
2022-10-09T17:30:30.624Z,100.00
2022-10-09T17:33:20.020Z,100.00
2022-10-09T17:36:10.806Z,100.00
2022-10-09T17:39:00.572Z,100.00
2022-10-09T17:41:50.352Z,100.00
2022-10-09T17:44:39.320Z,100.00
2022-10-09T17:47:28.685Z,100.00
2022-10-09T17:50:18.299Z,100.00
2022-10-09T17:53:07.829Z,100.00
2022-10-09T17:56:02.332Z,100.00
2022-10-09T17:58:51.410Z,100.00
2022-10-09T18:01:40.686Z,100.00
2022-10-09T18:04:29.199Z,100.00
2022-10-09T18:07:19.630Z,100.00
2022-10-09T18:10:10.603Z,100.00
2022-10-09T18:12:59.356Z,100.00
2022-10-09T18:15:48.113Z,100.00
2022-10-09T18:18:37.277Z,100.00
2022-10-09T18:21:26.650Z,100.00
2022-10-09T18:24:16.635Z,100.00
2022-10-09T18:27:06.618Z,100.00
2022-10-09T18:29:54.968Z,100.00
2022-10-09T18:32:43.717Z,100.00
2022-10-09T18:35:37.183Z,100.00
2022-10-09T18:38:25.734Z,100.00
2022-10-09T18:41:14.911Z,100.00
2022-10-09T18:44:04.783Z,100.00
2022-10-09T18:46:58.477Z,100.00
2022-10-09T18:49:50.845Z,100.00
2022-10-09T18:52:41.739Z,100.00
2022-10-09T18:55:31.990Z,100.00
2022-10-09T18:58:21.765Z,100.00
2022-10-09T19:01:11.462Z,100.00
2022-10-09T19:04:00.709Z,100.00
2022-10-09T19:06:50.898Z,100.00
2022-10-09T19:09:40.469Z,100.00
2022-10-09T19:12:29.230Z,100.00
2022-10-09T19:15:18.434Z,100.00
2022-10-09T19:18:07.556Z,100.00
2022-10-09T19:20:57.341Z,100.00
2022-10-09T19:23:48.148Z,100.00
2022-10-09T19:26:37.507Z,100.00
2022-10-09T19:29:26.672Z,100.00
2022-10-09T19:32:19.178Z,100.00
2022-10-09T19:35:11.356Z,100.00
2022-10-09T19:38:01.341Z,100.00
2022-10-09T19:40:51.320Z,100.00
2022-10-09T19:43:41.513Z,100.00
2022-10-09T19:46:31.089Z,100.00
2022-10-09T19:49:20.518Z,100.00
2022-10-09T19:52:09.821Z,100.00
2022-10-09T19:54:59.195Z,100.00
2022-10-09T19:57:47.943Z,100.00
2022-10-09T20:00:42.904Z,100.00
2022-10-09T20:03:31.398Z,100.00
2022-10-09T20:06:21.809Z,100.00
2022-10-09T20:09:12.314Z,100.00
2022-10-09T20:12:01.145Z,100.00
2022-10-09T20:14:50.309Z,100.00
2022-10-09T20:17:39.985Z,100.00
2022-10-09T20:20:29.457Z,100.00
2022-10-09T20:23:19.116Z,100.00
2022-10-09T20:26:10.884Z,100.00
2022-10-09T20:29:00.632Z,100.00
2022-10-09T20:31:49.803Z,100.00
2022-10-09T20:34:38.762Z,100.00
2022-10-09T20:37:28.542Z,100.00
2022-10-09T20:40:17.912Z,100.00
2022-10-09T20:43:06.870Z,100.00
2022-10-09T20:45:56.460Z,100.00
2022-10-09T20:48:45.817Z,100.00
2022-10-09T20:51:36.205Z,100.00
2022-10-09T20:54:25.371Z,100.00
2022-10-09T20:57:14.330Z,100.00
2022-10-09T21:00:04.314Z,100.00
2022-10-09T21:02:53.347Z,100.00
2022-10-09T21:05:43.447Z,100.00
2022-10-09T21:08:32.630Z,100.00
2022-10-09T21:11:22.409Z,100.00
2022-10-09T21:14:12.039Z,100.00
2022-10-09T21:17:01.354Z,100.00
2022-10-09T21:19:51.130Z,100.00
2022-10-09T21:22:40.537Z,100.00
2022-10-09T21:25:29.869Z,100.00
2022-10-09T21:28:19.073Z,100.00
2022-10-09T21:31:11.521Z,100.00
2022-10-09T21:34:02.487Z,100.00
2022-10-09T21:37:19.781Z,100.00
2022-10-09T21:40:03.095Z,100.00
2022-10-09T21:42:52.293Z,100.00
2022-10-09T21:45:41.742Z,100.00
2022-10-09T21:48:30.635Z,100.00
2022-10-09T21:51:20.599Z,100.00
2022-10-09T21:54:09.780Z,100.00
2022-10-09T21:56:58.943Z,100.00
2022-10-09T21:59:49.540Z,100.00
2022-10-09T22:02:38.704Z,100.00
2022-10-09T22:05:28.487Z,100.00
2022-10-09T22:08:16.624Z,100.00
2022-10-09T22:11:07.889Z,100.00
2022-10-09T22:13:57.410Z,100.00
2022-10-09T22:16:46.814Z,100.00
2022-10-09T22:22:59.840Z,100.00
2022-10-09T22:25:58.625Z,100.00
2022-10-09T22:28:47.837Z,100.00
2022-10-09T22:31:36.628Z,100.00
2022-10-09T22:34:24.533Z,100.00
2022-10-09T22:37:12.513Z,100.00
2022-10-09T22:40:00.916Z,100.00
2022-10-09T22:42:49.566Z,100.00
2022-10-09T22:45:50.396Z,100.00
2022-10-09T22:48:41.614Z,100.00
2022-10-09T22:51:35.900Z,100.00
2022-10-09T22:54:28.666Z,100.00
2022-10-09T22:57:29.941Z,100.00
2022-10-09T23:00:20.954Z,100.00
2022-10-09T23:03:10.101Z,100.00
2022-10-09T23:06:09.014Z,100.00
2022-10-09T23:08:58.383Z,100.00
2022-10-09T23:11:46.229Z,100.00
2022-10-09T23:14:34.329Z,100.00
2022-10-09T23:17:22.836Z,100.00
2022-10-09T23:20:11.371Z,100.00
2022-10-09T23:22:59.324Z,100.00
2022-10-09T23:25:47.870Z,100.00
2022-10-09T23:28:37.194Z,100.00
2022-10-09T23:31:27.016Z,100.00
2022-10-09T23:34:14.713Z,100.00
2022-10-09T23:37:03.072Z,100.00
2022-10-09T23:39:50.922Z,100.00
2022-10-09T23:42:39.052Z,100.00
2022-10-09T23:45:27.444Z,100.00
2022-10-09T23:48:15.779Z,100.00
2022-10-09T23:51:04.671Z,100.00
2022-10-09T23:53:53.251Z,100.00
2022-10-09T23:56:42.192Z,100.00
2022-10-09T23:59:30.682Z,100.00
